createdAt,value
2022-08-22T00:00:55.256Z,0.00
2022-08-22T00:01:55.302Z,0.00
2022-08-22T00:02:43.109Z,0.00
2022-08-22T00:02:57.557Z,0.00
2022-08-22T00:03:01.016Z,0.00
2022-08-22T00:03:56.214Z,0.00
2022-08-22T00:04:55.204Z,0.00
2022-08-22T00:05:55.196Z,0.00
2022-08-22T00:06:55.186Z,0.00
2022-08-22T00:07:55.226Z,0.00
2022-08-22T00:08:55.164Z,0.00
2022-08-22T00:09:55.153Z,0.00
2022-08-22T00:10:55.133Z,0.00
2022-08-22T00:11:55.123Z,0.00
2022-08-22T00:12:55.123Z,0.00
2022-08-22T00:14:01.213Z,0.00
2022-08-22T00:14:56.094Z,0.00
2022-08-22T00:15:55.080Z,0.00
2022-08-22T00:16:55.075Z,0.00
2022-08-22T00:17:55.122Z,0.00
2022-08-22T00:18:55.082Z,0.00
2022-08-22T00:19:55.063Z,0.00
2022-08-22T00:20:55.022Z,0.00
2022-08-22T00:21:55.014Z,0.00
2022-08-22T00:22:54.993Z,0.00
2022-08-22T00:23:54.992Z,0.00
2022-08-22T00:24:54.981Z,0.00
2022-08-22T00:25:54.964Z,0.00
2022-08-22T00:26:54.951Z,0.00
2022-08-22T00:27:55.070Z,0.00
2022-08-22T00:28:54.949Z,0.00
2022-08-22T00:29:54.931Z,0.00
2022-08-22T00:30:54.901Z,0.00
2022-08-22T00:31:54.889Z,0.00
2022-08-22T00:32:54.880Z,0.00
2022-08-22T00:33:54.860Z,0.00
2022-08-22T00:34:54.910Z,0.00
2022-08-22T00:35:54.840Z,0.00
2022-08-22T00:36:54.830Z,0.00
2022-08-22T00:37:54.878Z,0.00
2022-08-22T00:38:54.811Z,0.00
2022-08-22T00:39:54.857Z,0.00
2022-08-22T00:40:54.789Z,0.00
2022-08-22T00:41:54.789Z,0.00
2022-08-22T00:42:54.761Z,0.00
2022-08-22T00:43:54.751Z,0.00
2022-08-22T00:44:54.739Z,0.00
2022-08-22T00:45:54.739Z,0.00
2022-08-22T00:46:54.786Z,0.00
2022-08-22T00:47:54.703Z,0.00
2022-08-22T00:48:54.699Z,0.00
2022-08-22T00:49:54.681Z,0.00
2022-08-22T00:50:54.678Z,0.00
2022-08-22T00:51:54.658Z,0.00
2022-08-22T00:52:55.050Z,0.00
2022-08-22T00:53:54.637Z,0.00
2022-08-22T00:54:54.679Z,0.00
2022-08-22T00:55:54.608Z,0.00
2022-08-22T00:56:54.607Z,0.00
2022-08-22T00:57:54.617Z,0.00
2022-08-22T00:58:54.577Z,0.00
2022-08-22T00:59:54.587Z,0.00
2022-08-22T01:00:54.594Z,0.00
2022-08-22T01:01:54.537Z,0.00
2022-08-22T01:02:54.546Z,0.00
2022-08-22T01:03:54.573Z,0.00
2022-08-22T01:04:54.508Z,0.00
2022-08-22T01:05:54.518Z,0.00
2022-08-22T01:06:54.486Z,0.00
2022-08-22T01:07:54.475Z,0.00
2022-08-22T01:08:54.465Z,0.00
2022-08-22T01:09:54.458Z,0.00
2022-08-22T01:10:54.446Z,0.00
2022-08-22T01:11:54.455Z,0.00
2022-08-22T01:12:54.426Z,0.00
2022-08-22T01:13:54.408Z,0.00
2022-08-22T01:14:54.426Z,0.00
2022-08-22T01:15:54.375Z,0.00
2022-08-22T01:16:54.426Z,0.00
2022-08-22T01:17:54.373Z,0.00
2022-08-22T01:18:54.345Z,0.00
2022-08-22T01:19:54.335Z,0.00
2022-08-22T01:20:54.341Z,0.00
2022-08-22T01:21:54.306Z,0.00
2022-08-22T01:22:54.333Z,0.00
2022-08-22T01:23:54.283Z,0.00
2022-08-22T01:24:54.275Z,0.00
2022-08-22T01:25:54.264Z,0.00
2022-08-22T01:26:54.273Z,0.00
2022-08-22T01:27:54.243Z,0.00
2022-08-22T01:28:54.244Z,0.00
2022-08-22T01:29:54.222Z,0.00
2022-08-22T01:30:54.203Z,0.00
2022-08-22T01:31:54.255Z,0.00
2022-08-22T01:32:57.161Z,0.00
2022-08-22T01:33:54.206Z,0.00
2022-08-22T01:34:54.313Z,0.00
2022-08-22T01:35:54.153Z,0.00
2022-08-22T01:36:54.133Z,0.00
2022-08-22T01:37:54.171Z,0.00
2022-08-22T01:38:54.114Z,0.00
2022-08-22T01:39:54.139Z,0.00
2022-08-22T01:40:54.467Z,0.00
2022-08-22T01:41:54.081Z,0.00
2022-08-22T01:42:54.071Z,0.00
2022-08-22T01:43:59.948Z,0.00
2022-08-22T01:44:55.042Z,0.00
2022-08-22T01:45:54.054Z,0.00
2022-08-22T01:46:54.012Z,0.00
2022-08-22T01:47:54.508Z,0.00
2022-08-22T01:48:53.991Z,0.00
2022-08-22T01:49:53.980Z,0.00
2022-08-22T01:50:53.971Z,0.00
2022-08-22T01:51:53.971Z,0.00
2022-08-22T01:52:53.951Z,0.00
2022-08-22T01:53:53.941Z,0.00
2022-08-22T01:54:53.920Z,0.00
2022-08-22T01:55:53.921Z,0.00
2022-08-22T01:56:53.921Z,0.00
2022-08-22T01:57:53.890Z,0.00
2022-08-22T01:58:53.881Z,0.00
2022-08-22T01:59:54.589Z,0.00
2022-08-22T02:00:53.878Z,0.00
2022-08-22T02:01:53.849Z,0.00
2022-08-22T02:02:53.847Z,0.00
2022-08-22T02:03:53.828Z,0.00
2022-08-22T02:04:53.809Z,0.00
2022-08-22T02:05:53.799Z,0.00
2022-08-22T02:06:53.778Z,0.00
2022-08-22T02:07:53.798Z,0.00
2022-08-22T02:08:53.757Z,0.00
2022-08-22T02:09:53.756Z,0.00
2022-08-22T02:10:53.738Z,0.00
2022-08-22T02:11:53.728Z,0.00
2022-08-22T02:12:53.719Z,0.00
2022-08-22T02:13:53.718Z,0.00
2022-08-22T02:14:53.696Z,0.00
2022-08-22T02:15:53.679Z,0.00
2022-08-22T02:16:53.667Z,0.00
2022-08-22T02:17:53.667Z,0.00
2022-08-22T02:18:53.665Z,0.00
2022-08-22T02:19:53.638Z,0.00
2022-08-22T02:20:53.617Z,0.00
2022-08-22T02:21:53.616Z,0.00
2022-08-22T02:22:53.596Z,0.00
2022-08-22T02:23:53.586Z,0.00
2022-08-22T02:24:53.595Z,0.00
2022-08-22T02:25:53.566Z,0.00
2022-08-22T02:26:53.557Z,0.00
2022-08-22T02:27:53.546Z,0.00
2022-08-22T02:28:56.993Z,0.00
2022-08-22T02:29:53.515Z,0.00
2022-08-22T02:30:53.516Z,0.00
2022-08-22T02:31:53.497Z,0.00
2022-08-22T02:32:53.485Z,0.00
2022-08-22T02:33:53.474Z,0.00
2022-08-22T02:34:53.484Z,0.00
2022-08-22T02:35:53.453Z,0.00
2022-08-22T02:36:53.435Z,0.00
2022-08-22T02:37:53.424Z,0.00
2022-08-22T02:38:53.414Z,0.00
2022-08-22T02:39:53.458Z,0.00
2022-08-22T02:40:53.414Z,0.00
2022-08-22T02:41:53.384Z,0.00
2022-08-22T02:42:53.363Z,0.00
2022-08-22T02:43:53.354Z,0.00
2022-08-22T02:44:53.343Z,0.00
2022-08-22T02:45:53.341Z,0.00
2022-08-22T02:46:53.333Z,0.00
2022-08-22T02:47:53.322Z,0.00
2022-08-22T02:48:53.303Z,0.00
2022-08-22T02:49:53.292Z,0.00
2022-08-22T02:50:53.272Z,0.00
2022-08-22T02:51:53.281Z,0.00
2022-08-22T02:52:53.255Z,0.00
2022-08-22T02:53:53.243Z,0.00
2022-08-22T02:54:53.232Z,0.00
2022-08-22T02:55:53.220Z,0.00
2022-08-22T02:56:53.203Z,0.00
2022-08-22T02:57:53.251Z,0.00
2022-08-22T02:58:53.182Z,0.00
2022-08-22T02:59:53.172Z,0.00
2022-08-22T03:00:53.203Z,0.00
2022-08-22T03:01:53.169Z,0.00
2022-08-22T03:02:53.151Z,0.00
2022-08-22T03:03:53.129Z,0.00
2022-08-22T03:04:53.112Z,0.00
2022-08-22T03:05:53.102Z,0.00
2022-08-22T03:06:53.088Z,0.00
2022-08-22T03:07:53.166Z,0.00
2022-08-22T03:08:53.080Z,0.00
2022-08-22T03:09:53.070Z,0.00
2022-08-22T03:10:53.039Z,0.00
2022-08-22T03:11:53.039Z,0.00
2022-08-22T03:12:57.309Z,0.00
2022-08-22T03:13:53.019Z,0.00
2022-08-22T03:14:53.021Z,0.00
2022-08-22T03:15:52.979Z,0.00
2022-08-22T03:16:52.970Z,0.00
2022-08-22T03:17:52.980Z,0.00
2022-08-22T03:18:52.948Z,0.00
2022-08-22T03:19:52.941Z,0.00
2022-08-22T03:20:52.938Z,0.00
2022-08-22T03:21:52.919Z,0.00
2022-08-22T03:22:52.900Z,0.00
2022-08-22T03:23:52.897Z,0.00
2022-08-22T03:24:52.878Z,0.00
2022-08-22T03:25:52.880Z,0.00
2022-08-22T03:26:52.857Z,0.00
2022-08-22T03:27:52.849Z,0.00
2022-08-22T03:29:00.051Z,0.00
2022-08-22T03:29:53.828Z,0.00
2022-08-22T03:30:52.827Z,0.00
2022-08-22T03:31:52.798Z,0.00
2022-08-22T03:32:52.786Z,0.00
2022-08-22T03:33:52.778Z,0.00
2022-08-22T03:34:52.766Z,0.00
2022-08-22T03:35:52.766Z,0.00
2022-08-22T03:36:52.776Z,0.00
2022-08-22T03:37:52.762Z,0.00
2022-08-22T03:38:52.717Z,0.00
2022-08-22T03:39:52.747Z,0.00
2022-08-22T03:40:52.705Z,0.00
2022-08-22T03:41:52.685Z,0.00
2022-08-22T03:42:52.668Z,0.00
2022-08-22T03:43:52.675Z,0.00
2022-08-22T03:44:52.646Z,0.00
2022-08-22T03:45:52.643Z,0.00
2022-08-22T03:46:52.625Z,0.00
2022-08-22T03:47:52.627Z,0.00
2022-08-22T03:48:52.595Z,0.00
2022-08-22T03:49:54.772Z,0.00
2022-08-22T03:50:54.492Z,0.00
2022-08-22T03:51:52.572Z,0.00
2022-08-22T03:52:52.555Z,0.00
2022-08-22T03:53:52.544Z,0.00
2022-08-22T03:54:52.543Z,0.00
2022-08-22T03:55:52.524Z,0.00
2022-08-22T03:56:54.174Z,0.00
2022-08-22T03:57:53.503Z,0.00
2022-08-22T03:58:52.483Z,0.00
2022-08-22T03:59:52.493Z,0.00
2022-08-22T04:00:52.566Z,0.00
2022-08-22T04:01:52.452Z,0.00
2022-08-22T04:02:52.443Z,0.00
2022-08-22T04:03:52.432Z,0.00
2022-08-22T04:04:52.430Z,0.00
2022-08-22T04:05:53.335Z,0.00
2022-08-22T04:06:53.730Z,0.00
2022-08-22T04:07:52.471Z,0.00
2022-08-22T04:08:52.371Z,0.00
2022-08-22T04:09:52.361Z,0.00
2022-08-22T04:10:52.359Z,0.00
2022-08-22T04:11:52.333Z,0.00
2022-08-22T04:12:52.323Z,0.00
2022-08-22T04:13:52.311Z,0.00
2022-08-22T04:14:52.301Z,0.00
2022-08-22T04:15:53.191Z,0.00
2022-08-22T04:16:52.281Z,0.00
2022-08-22T04:17:52.291Z,0.00
2022-08-22T04:18:52.250Z,0.00
2022-08-22T04:19:52.243Z,0.00
2022-08-22T04:20:52.242Z,0.00
2022-08-22T04:21:52.220Z,0.00
2022-08-22T04:22:52.212Z,0.00
2022-08-22T04:23:52.200Z,0.00
2022-08-22T04:24:52.587Z,0.00
2022-08-22T04:25:52.188Z,0.00
2022-08-22T04:26:52.162Z,0.00
2022-08-22T04:27:52.178Z,0.00
2022-08-22T04:28:52.150Z,0.00
2022-08-22T04:29:52.126Z,0.00
2022-08-22T04:30:52.148Z,0.00
2022-08-22T04:31:52.118Z,0.00
2022-08-22T04:32:52.089Z,0.00
2022-08-22T04:33:52.078Z,0.00
2022-08-22T04:34:52.068Z,0.00
2022-08-22T04:35:52.080Z,0.00
2022-08-22T04:36:52.058Z,0.00
2022-08-22T04:37:52.092Z,5.62
2022-08-22T04:38:52.017Z,5.62
2022-08-22T04:39:52.106Z,5.62
2022-08-22T04:40:51.997Z,5.62
2022-08-22T04:41:51.988Z,5.62
2022-08-22T04:42:51.978Z,5.62
2022-08-22T04:43:51.966Z,5.62
2022-08-22T04:44:51.947Z,5.62
2022-08-22T04:45:51.937Z,5.62
2022-08-22T04:46:51.937Z,5.62
2022-08-22T04:47:53.929Z,11.25
2022-08-22T04:48:51.896Z,11.25
2022-08-22T04:49:51.888Z,11.25
2022-08-22T04:50:51.875Z,11.25
2022-08-22T04:51:51.872Z,11.25
2022-08-22T04:52:51.865Z,11.25
2022-08-22T04:53:51.846Z,16.88
2022-08-22T04:54:51.836Z,16.88
2022-08-22T04:55:51.835Z,16.88
2022-08-22T04:56:51.805Z,16.88
2022-08-22T04:57:51.813Z,16.88
2022-08-22T04:58:51.784Z,16.88
2022-08-22T04:59:51.785Z,16.88
2022-08-22T05:00:51.754Z,16.88
2022-08-22T05:01:51.777Z,16.88
2022-08-22T05:02:51.733Z,22.50
2022-08-22T05:03:51.734Z,22.50
2022-08-22T05:04:51.714Z,22.50
2022-08-22T05:05:51.704Z,22.50
2022-08-22T05:06:51.694Z,22.50
2022-08-22T05:07:51.683Z,22.50
2022-08-22T05:08:53.729Z,22.50
2022-08-22T05:09:51.654Z,22.50
2022-08-22T05:10:51.643Z,22.50
2022-08-22T05:11:51.633Z,22.50
2022-08-22T05:12:51.613Z,28.12
2022-08-22T05:13:51.614Z,28.12
2022-08-22T05:14:51.612Z,28.12
2022-08-22T05:15:51.592Z,28.12
2022-08-22T05:16:51.575Z,28.12
2022-08-22T05:17:51.564Z,28.12
2022-08-22T05:18:51.551Z,28.12
2022-08-22T05:19:51.552Z,33.75
2022-08-22T05:20:51.528Z,33.75
2022-08-22T05:21:51.520Z,33.75
2022-08-22T05:22:51.501Z,33.75
2022-08-22T05:23:51.491Z,33.75
2022-08-22T05:24:51.482Z,33.75
2022-08-22T05:25:51.483Z,33.75
2022-08-22T05:26:51.460Z,33.75
2022-08-22T05:27:56.323Z,33.75
2022-08-22T05:28:53.412Z,33.75
2022-08-22T05:29:51.439Z,33.75
2022-08-22T05:30:51.416Z,33.75
2022-08-22T05:31:51.402Z,39.38
2022-08-22T05:32:51.390Z,39.38
2022-08-22T05:33:51.380Z,39.38
2022-08-22T05:34:51.479Z,39.38
2022-08-22T05:35:55.816Z,39.38
2022-08-22T05:36:52.339Z,39.38
2022-08-22T05:37:51.336Z,45.00
2022-08-22T05:38:51.327Z,45.00
2022-08-22T05:39:51.398Z,45.00
2022-08-22T05:40:51.309Z,45.00
2022-08-22T05:41:51.288Z,50.62
2022-08-22T05:42:51.269Z,50.62
2022-08-22T05:43:51.267Z,50.62
2022-08-22T05:44:51.248Z,50.62
2022-08-22T05:45:51.249Z,56.25
2022-08-22T05:46:51.219Z,56.25
2022-08-22T05:47:51.216Z,56.25
2022-08-22T05:48:51.208Z,56.25
2022-08-22T05:49:51.188Z,56.25
2022-08-22T05:50:51.247Z,56.25
2022-08-22T05:51:51.167Z,61.88
2022-08-22T05:52:51.167Z,61.88
2022-08-22T05:53:51.149Z,61.88
2022-08-22T05:54:51.137Z,67.50
2022-08-22T05:55:51.138Z,67.50
2022-08-22T05:56:51.110Z,67.50
2022-08-22T05:57:51.096Z,73.12
2022-08-22T05:58:51.089Z,73.12
2022-08-22T05:59:51.077Z,73.12
2022-08-22T06:00:51.078Z,73.12
2022-08-22T06:01:51.062Z,78.75
2022-08-22T06:02:51.036Z,78.75
2022-08-22T06:03:51.027Z,78.75
2022-08-22T06:04:51.015Z,78.75
2022-08-22T06:05:51.005Z,78.75
2022-08-22T06:06:51.003Z,84.38
2022-08-22T06:07:50.997Z,84.38
2022-08-22T06:08:50.978Z,84.38
2022-08-22T06:09:50.961Z,84.38
2022-08-22T06:10:50.946Z,84.38
2022-08-22T06:11:52.055Z,84.38
2022-08-22T06:12:50.926Z,84.38
2022-08-22T06:13:50.923Z,84.38
2022-08-22T06:14:50.895Z,84.38
2022-08-22T06:15:50.895Z,84.38
2022-08-22T06:16:50.875Z,84.38
2022-08-22T06:17:50.884Z,84.38
2022-08-22T06:18:50.857Z,84.38
2022-08-22T06:19:50.843Z,84.38
2022-08-22T06:20:50.824Z,84.38
2022-08-22T06:21:50.823Z,84.38
2022-08-22T06:22:50.814Z,84.38
2022-08-22T06:23:50.805Z,78.75
2022-08-22T06:24:50.785Z,78.75
2022-08-22T06:25:50.773Z,78.75
2022-08-22T06:26:50.753Z,78.75
2022-08-22T06:27:50.764Z,78.75
2022-08-22T06:28:55.259Z,78.75
2022-08-22T06:29:51.723Z,78.75
2022-08-22T06:30:50.712Z,78.75
2022-08-22T06:31:50.703Z,78.75
2022-08-22T06:33:00.178Z,78.75
2022-08-22T06:33:51.680Z,78.75
2022-08-22T06:34:50.666Z,78.75
2022-08-22T06:35:50.662Z,78.75
2022-08-22T06:36:50.642Z,78.75
2022-08-22T06:37:50.651Z,78.75
2022-08-22T06:38:50.628Z,78.75
2022-08-22T06:39:50.676Z,78.75
2022-08-22T06:40:50.592Z,78.75
2022-08-22T06:41:50.589Z,78.75
2022-08-22T06:42:50.574Z,78.75
2022-08-22T06:43:50.573Z,78.75
2022-08-22T06:44:50.552Z,78.75
2022-08-22T06:45:50.543Z,78.75
2022-08-22T06:46:50.534Z,78.75
2022-08-22T06:47:52.178Z,78.75
2022-08-22T06:48:50.511Z,78.75
2022-08-22T06:49:50.492Z,78.75
2022-08-22T06:50:50.481Z,78.75
2022-08-22T06:51:50.471Z,78.75
2022-08-22T06:52:50.453Z,78.75
2022-08-22T06:53:50.619Z,78.75
2022-08-22T06:54:50.433Z,78.75
2022-08-22T06:55:50.439Z,78.75
2022-08-22T06:56:50.410Z,78.75
2022-08-22T06:57:50.401Z,78.75
2022-08-22T06:58:50.381Z,84.38
2022-08-22T06:59:50.391Z,84.38
2022-08-22T07:00:53.539Z,84.38
2022-08-22T07:01:51.373Z,84.38
2022-08-22T07:02:50.345Z,84.38
2022-08-22T07:03:50.331Z,84.38
2022-08-22T07:04:50.318Z,84.38
2022-08-22T07:05:50.332Z,84.38
2022-08-22T07:06:50.325Z,84.38
2022-08-22T07:07:50.281Z,84.38
2022-08-22T07:08:50.273Z,84.38
2022-08-22T07:09:50.260Z,84.38
2022-08-22T07:10:50.240Z,84.38
2022-08-22T07:11:50.259Z,84.38
2022-08-22T07:12:50.228Z,90.00
2022-08-22T07:13:50.211Z,90.00
2022-08-22T07:14:50.200Z,90.00
2022-08-22T07:15:50.201Z,90.00
2022-08-22T07:16:50.179Z,90.00
2022-08-22T07:17:50.205Z,90.00
2022-08-22T07:18:50.158Z,90.00
2022-08-22T07:19:50.179Z,95.62
2022-08-22T07:20:50.140Z,95.62
2022-08-22T07:21:50.126Z,95.62
2022-08-22T07:22:50.763Z,101.25
2022-08-22T07:23:50.116Z,101.25
2022-08-22T07:24:50.086Z,106.88
2022-08-22T07:25:50.080Z,106.88
2022-08-22T07:26:50.071Z,112.50
2022-08-22T07:27:50.059Z,112.50
2022-08-22T07:28:51.268Z,112.50
2022-08-22T07:29:51.028Z,118.12
2022-08-22T07:30:50.037Z,123.75
2022-08-22T07:31:50.009Z,129.38
2022-08-22T07:32:50.008Z,129.38
2022-08-22T07:33:50.165Z,135.00
2022-08-22T07:34:49.968Z,129.38
2022-08-22T07:35:53.472Z,135.00
2022-08-22T07:36:49.949Z,135.00
2022-08-22T07:37:49.947Z,140.62
2022-08-22T07:38:49.937Z,140.62
2022-08-22T07:39:50.922Z,140.62
2022-08-22T07:40:49.897Z,135.00
2022-08-22T07:41:49.887Z,112.50
2022-08-22T07:42:49.889Z,101.25
2022-08-22T07:43:49.875Z,90.00
2022-08-22T07:44:49.847Z,84.38
2022-08-22T07:45:49.838Z,90.00
2022-08-22T07:46:49.827Z,112.50
2022-08-22T07:47:49.956Z,146.25
2022-08-22T07:49:08.252Z,146.25
2022-08-22T07:49:50.795Z,140.62
2022-08-22T07:50:49.788Z,140.62
2022-08-22T07:51:49.779Z,95.62
2022-08-22T07:52:49.757Z,78.75
2022-08-22T07:53:49.768Z,78.75
2022-08-22T07:54:49.737Z,118.12
2022-08-22T07:55:50.055Z,123.75
2022-08-22T07:56:49.717Z,123.75
2022-08-22T07:57:49.696Z,129.38
2022-08-22T07:58:49.695Z,129.38
2022-08-22T07:59:49.689Z,129.38
2022-08-22T08:00:49.666Z,129.38
2022-08-22T08:01:49.674Z,129.38
2022-08-22T08:02:49.646Z,135.00
2022-08-22T08:03:49.645Z,129.38
2022-08-22T08:04:49.637Z,129.38
2022-08-22T08:05:49.636Z,67.50
2022-08-22T08:06:49.596Z,123.75
2022-08-22T08:07:49.586Z,101.25
2022-08-22T08:08:49.575Z,67.50
2022-08-22T08:09:49.577Z,90.00
2022-08-22T08:10:49.555Z,118.12
2022-08-22T08:11:49.536Z,112.50
2022-08-22T08:12:54.140Z,112.50
2022-08-22T08:13:50.514Z,101.25
2022-08-22T08:14:49.505Z,90.00
2022-08-22T08:15:49.502Z,118.12
2022-08-22T08:16:49.494Z,118.12
2022-08-22T08:17:49.466Z,112.50
2022-08-22T08:18:49.462Z,106.88
2022-08-22T08:19:49.458Z,50.62
2022-08-22T08:20:49.435Z,73.12
2022-08-22T08:21:49.437Z,118.12
2022-08-22T08:22:49.415Z,112.50
2022-08-22T08:23:49.395Z,118.12
2022-08-22T08:24:49.384Z,118.12
2022-08-22T08:25:49.375Z,118.12
2022-08-22T08:26:49.365Z,118.12
2022-08-22T08:27:50.459Z,118.12
2022-08-22T08:28:49.344Z,118.12
2022-08-22T08:29:49.371Z,118.12
2022-08-22T08:30:49.325Z,106.88
2022-08-22T08:31:49.305Z,95.62
2022-08-22T08:32:49.332Z,123.75
2022-08-22T08:33:49.285Z,123.75
2022-08-22T08:34:49.273Z,118.12
2022-08-22T08:36:02.357Z,123.75
2022-08-22T08:36:50.254Z,118.12
2022-08-22T08:37:49.234Z,123.75
2022-08-22T08:38:49.255Z,123.75
2022-08-22T08:39:49.236Z,123.75
2022-08-22T08:40:49.228Z,123.75
2022-08-22T08:41:49.194Z,123.75
2022-08-22T08:42:49.192Z,123.75
2022-08-22T08:43:49.173Z,123.75
2022-08-22T08:44:49.155Z,123.75
2022-08-22T08:45:49.160Z,123.75
2022-08-22T08:46:55.718Z,123.75
2022-08-22T08:47:50.114Z,123.75
2022-08-22T08:48:49.121Z,123.75
2022-08-22T08:49:50.513Z,123.75
2022-08-22T08:50:49.103Z,123.75
2022-08-22T08:51:49.073Z,123.75
2022-08-22T08:52:52.567Z,129.38
2022-08-22T08:53:49.053Z,129.38
2022-08-22T08:54:49.052Z,129.38
2022-08-22T08:55:49.041Z,129.38
2022-08-22T08:56:49.022Z,129.38
2022-08-22T08:57:50.003Z,135.00
2022-08-22T08:58:48.993Z,135.00
2022-08-22T08:59:48.993Z,123.75
2022-08-22T09:00:49.133Z,73.12
2022-08-22T09:01:48.966Z,129.38
2022-08-22T09:02:48.953Z,129.38
2022-08-22T09:03:48.951Z,129.38
2022-08-22T09:04:48.932Z,129.38
2022-08-22T09:05:48.931Z,129.38
2022-08-22T09:06:52.674Z,129.38
2022-08-22T09:07:49.893Z,135.00
2022-08-22T09:08:52.688Z,135.00
2022-08-22T09:09:52.320Z,135.00
2022-08-22T09:10:48.873Z,135.00
2022-08-22T09:11:48.843Z,135.00
2022-08-22T09:13:11.045Z,135.00
2022-08-22T09:13:49.822Z,135.00
2022-08-22T09:14:48.812Z,135.00
2022-08-22T09:15:59.678Z,135.00
2022-08-22T09:16:51.834Z,140.62
2022-08-22T09:17:48.772Z,140.62
2022-08-22T09:18:48.759Z,140.62
2022-08-22T09:19:48.752Z,140.62
2022-08-22T09:20:48.734Z,140.62
2022-08-22T09:21:48.749Z,140.62
2022-08-22T09:22:50.764Z,146.25
2022-08-22T09:23:48.715Z,146.25
2022-08-22T09:24:48.694Z,146.25
2022-08-22T09:25:48.690Z,146.25
2022-08-22T09:26:48.702Z,146.25
2022-08-22T09:27:48.662Z,146.25
2022-08-22T09:28:48.643Z,146.25
2022-08-22T09:29:54.755Z,146.25
2022-08-22T09:30:54.191Z,146.25
2022-08-22T09:32:49.641Z,151.88
2022-08-22T09:33:48.612Z,151.88
2022-08-22T09:34:48.605Z,151.88
2022-08-22T09:35:49.020Z,151.88
2022-08-22T09:36:48.542Z,151.88
2022-08-22T09:37:48.550Z,151.88
2022-08-22T09:38:48.532Z,151.88
2022-08-22T09:39:49.505Z,151.88
2022-08-22T09:40:16.220Z,146.25
2022-08-22T09:40:48.510Z,151.88
2022-08-22T09:41:51.662Z,151.88
2022-08-22T09:42:48.487Z,151.88
2022-08-22T09:43:48.912Z,157.50
2022-08-22T09:44:48.462Z,157.50
2022-08-22T09:45:48.478Z,157.50
2022-08-22T09:46:48.430Z,157.50
2022-08-22T09:47:48.430Z,157.50
2022-08-22T09:48:48.411Z,140.62
2022-08-22T09:49:48.410Z,151.88
2022-08-22T09:50:48.388Z,157.50
2022-08-22T09:51:49.380Z,157.50
2022-08-22T09:52:48.362Z,157.50
2022-08-22T09:53:48.371Z,163.12
2022-08-22T09:54:48.350Z,168.75
2022-08-22T09:55:48.341Z,174.38
2022-08-22T09:56:48.908Z,174.38
2022-08-22T09:57:48.308Z,174.38
2022-08-22T09:58:48.290Z,174.38
2022-08-22T09:59:48.291Z,180.00
2022-08-22T10:00:54.458Z,185.62
2022-08-22T10:01:49.268Z,185.62
2022-08-22T10:02:50.367Z,191.25
2022-08-22T10:03:48.240Z,196.88
2022-08-22T10:04:48.227Z,196.88
2022-08-22T10:05:48.213Z,196.88
2022-08-22T10:06:48.258Z,196.88
2022-08-22T10:07:52.668Z,196.88
2022-08-22T10:08:48.181Z,196.88
2022-08-22T10:09:48.179Z,202.50
2022-08-22T10:10:49.168Z,202.50
2022-08-22T10:11:48.150Z,208.12
2022-08-22T10:12:48.140Z,202.50
2022-08-22T10:13:48.120Z,202.50
2022-08-22T10:14:50.614Z,208.12
2022-08-22T10:15:48.099Z,202.50
2022-08-22T10:16:48.324Z,208.12
2022-08-22T10:17:48.079Z,208.12
2022-08-22T10:18:53.785Z,202.50
2022-08-22T10:19:49.051Z,202.50
2022-08-22T10:20:48.039Z,208.12
2022-08-22T10:21:48.030Z,208.12
2022-08-22T10:22:48.029Z,213.75
2022-08-22T10:23:48.009Z,219.38
2022-08-22T10:24:47.989Z,219.38
2022-08-22T10:25:47.990Z,225.00
2022-08-22T10:26:47.970Z,225.00
2022-08-22T10:27:47.961Z,225.00
2022-08-22T10:28:47.961Z,219.38
2022-08-22T10:29:47.940Z,219.38
2022-08-22T10:30:47.940Z,225.00
2022-08-22T10:31:58.615Z,225.00
2022-08-22T10:32:48.918Z,230.62
2022-08-22T10:33:47.909Z,230.62
2022-08-22T10:34:47.897Z,230.62
2022-08-22T10:35:47.874Z,230.62
2022-08-22T10:36:47.859Z,225.00
2022-08-22T10:37:47.841Z,225.00
2022-08-22T10:38:47.839Z,219.38
2022-08-22T10:39:47.920Z,219.38
2022-08-22T10:40:47.810Z,219.38
2022-08-22T10:41:47.808Z,219.38
2022-08-22T10:42:47.789Z,213.75
2022-08-22T10:43:47.808Z,213.75
2022-08-22T10:44:48.790Z,213.75
2022-08-22T10:45:47.751Z,213.75
2022-08-22T10:46:47.740Z,213.75
2022-08-22T10:47:47.729Z,213.75
2022-08-22T10:48:47.744Z,213.75
2022-08-22T10:49:51.140Z,213.75
2022-08-22T10:50:47.788Z,118.12
2022-08-22T10:51:47.679Z,78.75
2022-08-22T10:52:47.671Z,73.12
2022-08-22T10:53:47.669Z,73.12
2022-08-22T10:54:47.649Z,73.12
2022-08-22T10:55:47.630Z,78.75
2022-08-22T10:56:47.639Z,78.75
2022-08-22T10:57:52.575Z,84.38
2022-08-22T10:58:49.058Z,90.00
2022-08-22T10:59:47.864Z,90.00
2022-08-22T11:00:49.866Z,95.62
2022-08-22T11:01:47.601Z,101.25
2022-08-22T11:02:47.570Z,101.25
2022-08-22T11:03:47.547Z,101.25
2022-08-22T11:04:47.530Z,258.75
2022-08-22T11:05:50.209Z,258.75
2022-08-22T11:06:47.509Z,241.88
2022-08-22T11:07:48.740Z,264.38
2022-08-22T11:08:47.501Z,258.75
2022-08-22T11:09:47.479Z,264.38
2022-08-22T11:10:47.469Z,258.75
2022-08-22T11:11:47.598Z,258.75
2022-08-22T11:12:47.451Z,258.75
2022-08-22T11:13:47.457Z,163.12
2022-08-22T11:14:47.428Z,196.88
2022-08-22T11:15:47.432Z,90.00
2022-08-22T11:16:47.400Z,123.75
2022-08-22T11:17:53.906Z,73.12
2022-08-22T11:19:01.841Z,67.50
2022-08-22T11:19:48.359Z,67.50
2022-08-22T11:20:47.365Z,67.50
2022-08-22T11:21:47.349Z,67.50
2022-08-22T11:22:47.370Z,78.75
2022-08-22T11:23:47.339Z,241.88
2022-08-22T11:24:56.374Z,67.50
2022-08-22T11:25:53.709Z,129.38
2022-08-22T11:26:48.289Z,270.00
2022-08-22T11:27:47.269Z,270.00
2022-08-22T11:28:47.259Z,275.62
2022-08-22T11:29:47.258Z,281.25
2022-08-22T11:30:47.239Z,292.50
2022-08-22T11:31:51.632Z,298.12
2022-08-22T11:32:48.210Z,298.12
2022-08-22T11:33:47.793Z,298.12
2022-08-22T11:34:47.199Z,309.38
2022-08-22T11:35:47.179Z,315.00
2022-08-22T11:36:47.169Z,303.75
2022-08-22T11:37:47.250Z,129.38
2022-08-22T11:38:47.139Z,95.62
2022-08-22T11:39:47.303Z,90.00
2022-08-22T11:40:47.130Z,84.38
2022-08-22T11:41:52.349Z,84.38
2022-08-22T11:42:48.120Z,78.75
2022-08-22T11:43:47.167Z,73.12
2022-08-22T11:44:50.852Z,73.12
2022-08-22T11:45:47.078Z,73.12
2022-08-22T11:46:47.050Z,264.38
2022-08-22T11:47:47.039Z,286.88
2022-08-22T11:48:48.542Z,275.62
2022-08-22T11:49:47.023Z,275.62
2022-08-22T11:50:47.029Z,270.00
2022-08-22T11:51:46.998Z,264.38
2022-08-22T11:52:51.664Z,258.75
2022-08-22T11:53:47.978Z,253.12
2022-08-22T11:54:46.967Z,247.50
2022-08-22T11:55:46.949Z,101.25
2022-08-22T11:56:46.949Z,241.88
2022-08-22T11:57:46.920Z,258.75
2022-08-22T11:58:46.920Z,236.25
2022-08-22T11:59:47.758Z,236.25
2022-08-22T12:00:46.897Z,230.62
2022-08-22T12:01:46.933Z,258.75
2022-08-22T12:02:47.369Z,247.50
2022-08-22T12:03:46.857Z,225.00
2022-08-22T12:04:47.849Z,213.75
2022-08-22T12:05:46.839Z,208.12
2022-08-22T12:06:47.560Z,213.75
2022-08-22T12:07:50.627Z,202.50
2022-08-22T12:08:46.820Z,202.50
2022-08-22T12:09:47.668Z,196.88
2022-08-22T12:10:46.779Z,196.88
2022-08-22T12:11:46.769Z,196.88
2022-08-22T12:12:46.749Z,208.12
2022-08-22T12:13:46.738Z,202.50
2022-08-22T12:14:46.749Z,196.88
2022-08-22T12:15:46.719Z,191.25
2022-08-22T12:16:47.408Z,185.62
2022-08-22T12:17:55.847Z,180.00
2022-08-22T12:18:47.679Z,174.38
2022-08-22T12:20:12.845Z,168.75
2022-08-22T12:20:47.681Z,157.50
2022-08-22T12:21:46.648Z,157.50
2022-08-22T12:22:50.092Z,151.88
2022-08-22T12:23:49.648Z,157.50
2022-08-22T12:24:46.631Z,157.50
2022-08-22T12:25:46.611Z,185.62
2022-08-22T12:26:46.623Z,157.50
2022-08-22T12:27:48.288Z,185.62
2022-08-22T12:28:47.579Z,101.25
2022-08-22T12:29:46.549Z,73.12
2022-08-22T12:30:46.559Z,73.12
2022-08-22T12:31:46.542Z,73.12
2022-08-22T12:32:46.531Z,73.12
2022-08-22T12:33:46.507Z,73.12
2022-08-22T12:34:46.499Z,73.12
2022-08-22T12:35:46.486Z,78.75
2022-08-22T12:36:46.508Z,129.38
2022-08-22T12:37:52.397Z,123.75
2022-08-22T12:38:47.458Z,123.75
2022-08-22T12:39:46.486Z,123.75
2022-08-22T12:40:46.428Z,118.12
2022-08-22T12:41:46.461Z,118.12
2022-08-22T12:42:46.453Z,112.50
2022-08-22T12:43:46.427Z,118.12
2022-08-22T12:44:46.390Z,106.88
2022-08-22T12:45:46.368Z,106.88
2022-08-22T12:46:47.298Z,106.88
2022-08-22T12:47:46.348Z,106.88
2022-08-22T12:48:46.372Z,106.88
2022-08-22T12:49:50.003Z,106.88
2022-08-22T12:50:47.308Z,101.25